Time;durP1;ratioP1;P1;durP2;ratioP2;P2;SDS_P1;SDS_P2;PMS_P1;PMS_P2;Temp;Humidity;BMP_temperature;BMP_pressure;BME280_temperature;BME280_humidity;BME280_pressure;Samples;Min_cycle;Max_cycle;Signal;HPM_P1;HPM_P2
2021/04/03 00:00:55;;;;;;;15.45;8.53;;;;;;;4.13;60.99;99853.22;1782420;78;21104;-59
2021/04/03 00:03:25;;;;;;;13.72;7.75;;;;;;;4.07;61.13;99851.01;1769859;80;21645;-59
2021/04/03 00:05:53;;;;;;;16.50;9.10;;;;;;;3.97;61.32;99855.08;1779833;79;21155;-59
2021/04/03 00:08:24;;;;;;;22.27;8.40;;;;;;;3.89;61.53;99854.27;1788091;78;21174;-59
2021/04/03 00:10:58;;;;;;;14.85;7.45;;;;;;;3.84;61.61;99846.73;1814708;78;21115;-59
2021/04/03 00:13:32;;;;;;;14.33;7.97;;;;;;;3.81;61.69;99846.08;1783792;78;21630;-59
2021/04/03 00:16:00;;;;;;;15.78;8.38;;;;;;;3.74;61.69;99853.42;1750879;81;21654;-59
2021/04/03 00:18:28;;;;;;;18.75;9.53;;;;;;;3.76;61.67;99855.93;1773706;80;21195;-59
2021/04/03 00:20:55;;;;;;;17.00;9.05;;;;;;;3.76;61.62;99854.63;1760643;79;21168;-60
2021/04/03 00:23:23;;;;;;;17.45;8.28;;;;;;;3.77;61.57;99850.64;1777113;79;21195;-59
2021/04/03 00:25:51;;;;;;;14.15;8.63;;;;;;;3.78;61.54;99854.89;1784689;78;21756;-59
2021/04/03 00:28:19;;;;;;;17.02;9.20;;;;;;;3.77;61.44;99845.91;1785246;78;21613;-59
2021/04/03 00:30:47;;;;;;;17.40;9.55;;;;;;;3.79;61.46;99853.15;1783567;79;21615;-59
2021/04/03 00:33:14;;;;;;;17.67;8.85;;;;;;;3.77;61.46;99851.94;1786990;79;21167;-59
2021/04/03 00:35:44;;;;;;;14.83;8.75;;;;;;;3.78;61.56;99853.59;1751147;79;21215;-59
2021/04/03 00:38:14;;;;;;;16.45;8.63;;;;;;;3.82;61.55;99855.09;1768483;79;21164;-59
2021/04/03 00:40:46;;;;;;;15.80;9.08;;;;;;;3.83;61.55;99859.39;1752832;79;21409;-59
2021/04/03 00:43:19;;;;;;;14.18;8.25;;;;;;;3.87;61.56;99864.77;1770311;79;21184;-59
2021/04/03 00:45:47;;;;;;;15.58;9.25;;;;;;;3.85;61.50;99853.62;1773190;80;21155;-59
2021/04/03 00:48:16;;;;;;;14.00;8.13;;;;;;;3.86;61.54;99853.97;1775299;78;21186;-59
2021/04/03 00:50:47;;;;;;;17.48;8.73;;;;;;;3.99;61.36;99854.55;1763644;79;21171;-59
2021/04/03 00:53:18;;;;;;;16.73;8.10;;;;;;;4.09;61.15;99849.14;1783288;80;21191;-59
2021/04/03 00:55:47;;;;;;;13.30;7.45;;;;;;;4.17;60.93;99849.51;1758074;78;21227;-59
2021/04/03 00:58:16;;;;;;;14.38;8.78;;;;;;;4.22;60.77;99851.36;1795537;79;21545;-59
2021/04/03 01:00:46;;;;;;;13.08;8.95;;;;;;;4.22;60.67;99850.50;1751251;80;21200;-59
2021/04/03 01:03:15;;;;;;;15.65;8.58;;;;;;;4.20;60.61;99855.84;1776275;79;21109;-59
2021/04/03 01:05:43;;;;;;;14.78;8.13;;;;;;;4.18;60.44;99856.37;1744348;79;22355;-59
2021/04/03 01:08:11;;;;;;;13.60;8.00;;;;;;;4.13;60.38;99853.69;1756740;80;21567;-59
2021/04/03 01:10:42;;;;;;;16.48;9.10;;;;;;;4.12;60.43;99855.91;1751917;79;21167;-59
2021/04/03 01:13:38;;;;;;;13.60;8.55;;;;;;;4.09;60.34;99853.88;1778975;79;21710;-59
2021/04/03 01:16:15;;;;;;;;;;;;;;;4.07;60.45;99855.74;1784711;79;21553;-59
2021/04/03 01:19:20;;;;;;;15.32;8.98;;;;;;;4.05;60.48;99858.05;1816026;78;20892;-59
2021/04/03 01:22:19;;;;;;;21.10;9.00;;;;;;;3.91;60.65;99862.33;1822135;77;21155;-58
2021/04/03 01:25:22;;;;;;;16.55;8.03;;;;;;;3.79;60.93;99852.67;1778480;79;21181;-59
2021/04/03 01:28:01;;;;;;;13.40;8.13;;;;;;;3.68;61.18;99864.19;1785919;78;21187;-59
2021/04/03 01:30:29;;;;;;;12.70;7.33;;;;;;;3.53;61.41;99858.13;1789354;78;21568;-59
2021/04/03 01:33:06;;;;;;;15.55;8.00;;;;;;;3.37;61.64;99862.58;1789489;78;21397;-59
2021/04/03 01:36:00;;;;;;;16.50;8.80;;;;;;;3.37;61.64;99862.58;1794713;79;21172;-58
2021/04/03 01:38:48;;;;;;;13.08;7.72;;;;;;;3.31;61.61;99860.70;1814366;77;21097;-58
2021/04/03 01:41:23;;;;;;;13.25;8.08;;;;;;;3.34;61.82;99867.01;1768272;78;21440;-58
2021/04/03 01:43:53;;;;;;;12.25;7.60;;;;;;;3.34;61.82;99867.01;1783189;78;21583;-58
2021/04/03 01:46:34;;;;;;;16.17;7.78;;;;;;;3.38;61.76;99860.33;1828405;76;22641;-57
2021/04/03 01:49:11;;;;;;;13.13;7.35;;;;;;;3.38;61.70;99870.30;1789322;79;21587;-58
2021/04/03 01:51:42;;;;;;;14.93;7.03;;;;;;;3.38;61.70;99870.30;1753202;79;21184;-58
2021/04/03 01:54:10;;;;;;;16.20;7.78;;;;;;;3.38;61.53;99874.63;1794580;79;21184;-58
2021/04/03 01:56:43;;;;;;;16.05;8.83;;;;;;;3.39;61.51;99873.25;1798808;79;21159;-58
2021/04/03 01:59:12;;;;;;;11.78;7.47;;;;;;;3.42;61.53;99869.17;1760441;79;21179;-58
2021/04/03 02:01:43;;;;;;;13.08;7.42;;;;;;;3.44;61.54;99866.48;1802493;77;21088;-58
2021/04/03 02:04:15;;;;;;;10.30;7.08;;;;;;;3.43;61.55;99863.50;1797471;79;21233;-59
2021/04/03 02:06:45;;;;;;;15.03;7.72;;;;;;;3.42;61.56;99862.67;1776143;79;21183;-59
2021/04/03 02:09:16;;;;;;;13.60;7.65;;;;;;;3.38;61.89;99862.93;1804289;79;21621;-58
2021/04/03 02:11:49;;;;;;;17.45;7.75;;;;;;;3.38;61.89;99862.93;1796326;78;21167;-59
2021/04/03 02:14:36;;;;;;;12.85;7.20;;;;;;;3.36;61.50;99859.12;1801872;79;21666;-58
2021/04/03 02:17:06;;;;;;;11.90;6.70;;;;;;;3.31;61.54;99855.95;1802755;77;21324;-59
2021/04/03 02:19:35;;;;;;;16.55;8.18;;;;;;;3.27;61.67;99853.17;1799166;79;21614;-59
2021/04/03 02:22:04;;;;;;;12.00;6.78;;;;;;;3.28;61.88;99850.95;1796663;79;22071;-59
2021/04/03 02:24:33;;;;;;;13.83;6.50;;;;;;;3.29;62.08;99850.84;1802110;79;21732;-58
2021/04/03 02:27:01;;;;;;;13.13;7.90;;;;;;;3.30;61.98;99844.72;1796829;79;21160;-59
2021/04/03 02:29:29;;;;;;;13.48;7.45;;;;;;;3.30;62.27;99848.63;1801588;78;21179;-59
2021/04/03 02:31:59;;;;;;;15.20;7.75;;;;;;;3.34;62.52;99847.97;1796668;79;21178;-59
2021/04/03 02:34:27;;;;;;;16.10;7.90;;;;;;;3.34;62.52;99847.97;1769799;79;21210;-59
2021/04/03 02:36:59;;;;;;;15.90;8.80;;;;;;;3.33;62.57;99852.82;1797424;78;21112;-58
2021/04/03 02:39:27;;;;;;;14.45;6.65;;;;;;;3.31;62.77;99852.91;1781077;79;21160;-58
2021/04/03 02:42:08;;;;;;;12.98;7.35;;;;;;;3.31;62.77;99852.91;1795844;79;21733;-59
2021/04/03 02:44:45;;;;;;;13.85;8.63;;;;;;;3.32;62.88;99856.34;1775249;78;21148;-59
2021/04/03 02:47:22;;;;;;;14.00;7.95;;;;;;;3.32;62.88;99856.34;1802367;79;21144;-59
2021/04/03 02:49:55;;;;;;;16.42;7.95;;;;;;;3.30;62.79;99862.09;1805606;77;21138;-58
2021/04/03 02:52:25;;;;;;;12.98;7.83;;;;;;;3.28;63.17;99858.75;1803951;79;21139;-58
2021/04/03 02:54:53;;;;;;;14.60;8.10;;;;;;;3.28;63.17;99858.75;1770530;79;21217;-58
2021/04/03 02:57:22;;;;;;;15.65;8.28;;;;;;;3.26;62.68;99855.38;1800739;79;21200;-58
2021/04/03 02:59:53;;;;;;;13.10;7.78;;;;;;;3.20;62.68;99851.39;1799349;79;22368;-58
2021/04/03 03:02:23;;;;;;;13.20;7.50;;;;;;;3.20;62.68;99851.39;1791778;79;21151;-58
2021/04/03 03:04:51;;;;;;;16.32;7.35;;;;;;;3.20;62.26;99853.16;1791285;77;21164;-58
2021/04/03 03:07:19;;;;;;;16.30;8.00;;;;;;;3.13;62.56;99855.27;1799032;79;21948;-63
2021/04/03 03:09:49;;;;;;;14.43;7.20;;;;;;;3.13;62.56;99855.27;1782755;79;21335;-58
2021/04/03 03:12:21;;;;;;;12.93;6.62;;;;;;;3.16;62.56;99861.57;1799586;79;21229;-59
2021/04/03 03:14:49;;;;;;;15.00;8.00;;;;;;;3.26;62.87;99856.68;1779350;77;21754;-58
2021/04/03 03:17:18;;;;;;;11.05;6.83;;;;;;;3.38;62.54;99851.23;1756721;79;21179;-58
2021/04/03 03:19:48;;;;;;;10.58;6.53;;;;;;;3.45;62.26;99853.39;1804583;78;22211;-58
2021/04/03 03:22:16;;;;;;;12.33;5.78;;;;;;;3.50;62.23;99847.92;1767813;80;21190;-58
2021/04/03 03:24:44;;;;;;;15.65;6.58;;;;;;;3.47;61.67;99855.43;1719574;82;21227;-57
2021/04/03 03:27:12;;;;;;;11.33;5.95;;;;;;;3.47;61.67;99855.43;1746629;81;21218;-58
2021/04/03 03:29:42;;;;;;;11.45;6.20;;;;;;;3.41;61.68;99845.38;1762940;80;21179;-59
2021/04/03 03:32:11;;;;;;;13.32;6.33;;;;;;;3.34;61.79;99847.97;1705174;81;21206;-58
2021/04/03 03:34:40;;;;;;;12.45;5.95;;;;;;;3.30;62.11;99850.39;1771719;79;21140;-58
2021/04/03 03:37:09;;;;;;;13.20;6.30;;;;;;;3.28;62.28;99849.19;1778270;80;21159;-58
2021/04/03 03:39:39;;;;;;;14.00;5.65;;;;;;;3.26;62.26;99846.28;1770208;79;21551;-59
2021/04/03 03:42:10;;;;;;;17.23;6.72;;;;;;;3.20;62.29;99838.86;1798394;79;21178;-58
2021/04/03 03:44:40;;;;;;;13.60;6.87;;;;;;;3.15;62.55;99843.84;1807279;78;21358;-59
2021/04/03 03:47:09;;;;;;;9.33;5.35;;;;;;;3.12;62.48;99844.02;1772993;79;21163;-59
2021/04/03 03:49:39;;;;;;;10.80;5.42;;;;;;;3.10;62.33;99839.84;1788974;79;21137;-58
2021/04/03 03:52:07;;;;;;;12.80;6.37;;;;;;;3.10;62.33;99839.84;1725684;80;21182;-58
2021/04/03 03:54:36;;;;;;;10.25;5.58;;;;;;;3.13;62.12;99852.67;1764830;79;21159;-59
2021/04/03 03:57:05;;;;;;;10.98;5.70;;;;;;;3.07;61.96;99844.75;1769273;80;21275;-58
2021/04/03 03:59:33;;;;;;;11.03;5.65;;;;;;;3.03;61.91;99847.16;1762181;79;21258;-58
2021/04/03 04:02:02;;;;;;;10.53;5.70;;;;;;;3.03;61.91;99847.16;1744167;81;21251;-59
2021/04/03 04:04:32;;;;;;;10.68;5.35;;;;;;;3.02;62.23;99848.08;1767506;79;21218;-60
2021/04/03 04:07:03;;;;;;;9.08;4.80;;;;;;;3.02;62.13;99851.14;1800800;79;21623;-60
2021/04/03 04:09:30;;;;;;;9.20;5.47;;;;;;;3.02;62.13;99851.14;1794795;77;21327;-60
2021/04/03 04:12:05;;;;;;;10.25;4.42;;;;;;;2.98;62.09;99849.19;1796370;79;21347;-60
2021/04/03 04:14:35;;;;;;;11.45;5.33;;;;;;;3.04;62.15;99859.69;1766959;79;21207;-59
2021/04/03 04:17:05;;;;;;;14.65;5.35;;;;;;;3.04;62.15;99859.69;1722495;81;21227;-57
2021/04/03 04:19:34;;;;;;;9.95;5.50;;;;;;;3.08;62.05;99859.91;1797579;79;21287;-57
2021/04/03 04:22:04;;;;;;;9.70;5.15;;;;;;;3.08;61.69;99864.63;1798296;79;21239;-58
2021/04/03 04:24:33;;;;;;;10.35;5.12;;;;;;;3.10;61.51;99869.27;1793651;79;21188;-57
2021/04/03 04:27:02;;;;;;;9.23;5.35;;;;;;;3.10;61.51;99869.27;1798060;79;21112;-58
2021/04/03 04:29:31;;;;;;;9.48;5.58;;;;;;;3.12;61.46;99871.31;1772864;79;21231;-58
2021/04/03 04:32:03;;;;;;;9.38;5.35;;;;;;;3.18;61.42;99867.55;1796654;77;21211;-59
2021/04/03 04:34:33;;;;;;;10.95;5.15;;;;;;;3.23;61.29;99865.95;1797612;77;22463;-59
2021/04/03 04:37:04;;;;;;;11.95;5.65;;;;;;;3.27;61.03;99863.57;1741595;79;21211;-59
2021/04/03 04:39:36;;;;;;;8.95;4.47;;;;;;;3.31;60.97;99864.61;1765246;79;21207;-58
2021/04/03 04:42:06;;;;;;;11.93;5.08;;;;;;;3.34;60.85;99857.08;1775272;79;21219;-58
2021/04/03 04:44:36;;;;;;;11.15;5.42;;;;;;;3.40;60.84;99861.93;1797409;79;21634;-59
2021/04/03 04:47:12;;;;;;;10.80;5.78;;;;;;;3.46;60.78;99860.72;1802810;77;26675;-58
2021/04/03 04:49:40;;;;;;;15.93;5.62;;;;;;;3.51;60.72;99856.08;1760189;79;21170;-58
2021/04/03 04:52:07;;;;;;;9.83;5.00;;;;;;;3.59;60.81;99864.27;1728104;79;22242;-59
2021/04/03 04:54:36;;;;;;;12.80;6.15;;;;;;;3.67;60.77;99863.83;1756410;80;21271;-58
2021/04/03 04:57:07;;;;;;;9.88;5.60;;;;;;;3.72;60.64;99862.62;1803774;77;21199;-58
2021/04/03 04:59:37;;;;;;;12.78;5.65;;;;;;;3.83;60.56;99862.43;1797647;77;21281;-57
2021/04/03 05:02:10;;;;;;;9.70;4.80;;;;;;;3.91;60.02;99861.51;1799726;78;21180;-58
2021/04/03 05:04:39;;;;;;;10.08;5.30;;;;;;;3.94;59.85;99865.23;1784404;78;21179;-58
2021/04/03 05:07:07;;;;;;;12.58;6.05;;;;;;;4.01;59.73;99870.91;1806647;78;21191;-58
2021/04/03 05:09:35;;;;;;;12.10;5.47;;;;;;;4.05;59.46;99867.17;1803276;78;21196;-58
2021/04/03 05:12:04;;;;;;;12.98;5.10;;;;;;;4.12;59.31;99872.84;1804431;78;21327;-58
2021/04/03 05:14:32;;;;;;;9.88;4.87;;;;;;;4.20;59.14;99878.41;1808224;78;21171;-58
2021/04/03 05:17:02;;;;;;;13.78;5.87;;;;;;;4.25;59.18;99876.36;1785367;78;21196;-57
2021/04/03 05:19:29;;;;;;;10.55;5.10;;;;;;;4.33;59.58;99875.89;1758343;81;21231;-58
2021/04/03 05:21:56;;;;;;;12.13;5.22;;;;;;;4.49;58.78;99878.37;1785507;79;21503;-59
2021/04/03 05:24:24;;;;;;;12.90;5.40;;;;;;;4.55;58.26;99876.21;1804733;78;21337;-58
2021/04/03 05:26:52;;;;;;;11.35;5.83;;;;;;;4.56;58.33;99884.41;1811902;78;21214;-58
2021/04/03 05:29:20;;;;;;;10.80;5.53;;;;;;;4.55;58.19;99878.82;1799509;77;21131;-57
2021/04/03 05:31:47;;;;;;;9.85;4.87;;;;;;;4.55;58.19;99878.82;1809135;78;21575;-58
2021/04/03 05:34:15;;;;;;;11.08;5.65;;;;;;;4.57;58.32;99876.98;1801555;78;21179;-58
2021/04/03 05:36:42;;;;;;;10.08;5.75;;;;;;;4.59;58.24;99877.71;1804980;77;21236;-62
2021/04/03 05:39:11;;;;;;;10.50;5.28;;;;;;;4.65;58.38;99877.30;1782084;78;21218;-63
2021/04/03 05:41:39;;;;;;;9.68;5.45;;;;;;;4.72;58.38;99871.23;1805811;78;21493;-69
2021/04/03 05:44:09;;;;;;;10.10;6.00;;;;;;;4.86;58.14;99882.10;1785497;78;21128;-55
2021/04/03 05:46:39;;;;;;;13.45;5.47;;;;;;;4.99;57.92;99877.77;1794648;77;21193;-58
2021/04/03 05:49:07;;;;;;;9.53;5.65;;;;;;;5.09;57.60;99870.63;1789034;79;21364;-58
2021/04/03 05:51:35;;;;;;;9.98;5.55;;;;;;;5.20;57.57;99874.69;1788834;78;21222;-57
2021/04/03 05:54:03;;;;;;;13.93;6.28;;;;;;;5.30;57.24;99875.75;1777960;78;21181;-58
2021/04/03 05:56:30;;;;;;;11.33;5.65;;;;;;;5.43;57.14;99876.23;1774978;79;21183;-57
2021/04/03 05:59:00;;;;;;;11.95;6.30;;;;;;;5.51;56.33;99879.16;1804969;77;21184;-58
2021/04/03 06:01:27;;;;;;;10.80;5.65;;;;;;;5.58;55.89;99879.97;1799305;77;21906;-58
2021/04/03 06:03:55;;;;;;;11.12;6.10;;;;;;;5.68;56.01;99884.10;1792435;79;21215;-60
2021/04/03 06:06:25;;;;;;;8.65;4.70;;;;;;;5.76;55.62;99883.09;1800667;77;21431;-62
2021/04/03 06:08:53;;;;;;;8.60;5.17;;;;;;;5.84;55.42;99886.97;1798829;79;21116;-60
2021/04/03 06:11:22;;;;;;;10.58;5.00;;;;;;;5.86;55.48;99885.08;1805155;77;21646;-60
2021/04/03 06:14:02;;;;;;;9.93;4.80;;;;;;;5.90;55.25;99892.61;1803529;77;21207;-59
2021/04/03 06:16:36;;;;;;;10.20;5.47;;;;;;;5.92;54.67;99892.51;1791702;79;21199;-59
2021/04/03 06:19:13;;;;;;;9.65;4.78;;;;;;;5.93;54.97;99902.00;1777194;79;21215;-60
2021/04/03 06:21:55;;;;;;;11.48;5.10;;;;;;;5.94;54.80;99899.76;1790443;77;22379;-61
2021/04/03 06:24:32;;;;;;;8.85;5.30;;;;;;;6.00;54.86;99899.83;1797962;79;21187;-60
2021/04/03 06:27:08;;;;;;;9.23;5.05;;;;;;;6.08;54.88;99896.22;1767670;79;21198;-59
2021/04/03 06:29:48;;;;;;;9.13;4.28;;;;;;;6.16;54.39;99897.84;1769750;79;21195;-61
2021/04/03 06:32:29;;;;;;;11.12;5.83;;;;;;;6.24;54.14;99892.92;1808294;79;21635;-60
2021/04/03 06:34:55;;;;;;;10.63;5.42;;;;;;;6.33;54.32;99893.56;1793634;79;21131;-62
2021/04/03 06:37:33;;;;;;;8.45;4.60;;;;;;;6.43;53.90;99900.77;1796410;78;21100;-65
2021/04/03 06:40:09;;;;;;;11.08;4.78;;;;;;;6.49;53.58;99907.71;1799312;79;21678;-65
2021/04/03 06:42:57;;;;;;;8.08;4.60;;;;;;;6.55;53.29;99916.06;1769830;79;21235;-65
2021/04/03 06:45:31;;;;;;;7.65;4.35;;;;;;;6.60;53.35;99913.95;1780449;77;21131;-66
2021/04/03 06:48:06;;;;;;;12.28;6.53;;;;;;;6.68;53.64;99914.25;1776064;78;21594;-63
2021/04/03 06:50:44;;;;;;;11.90;5.08;;;;;;;6.77;53.83;99914.06;1752469;81;22235;-64
2021/04/03 06:53:15;;;;;;;12.35;5.85;;;;;;;6.89;53.58;99919.70;1788329;79;22941;-64
2021/04/03 06:55:47;;;;;;;10.03;5.17;;;;;;;6.99;53.62;99921.19;1783070;79;21621;-65
2021/04/03 06:58:15;;;;;;;9.53;5.97;;;;;;;7.07;53.43;99927.53;1776974;79;21652;-66
2021/04/03 07:00:45;;;;;;;10.82;5.33;;;;;;;7.14;53.18;99916.63;1805996;78;21677;-65
2021/04/03 07:03:23;;;;;;;10.60;5.62;;;;;;;7.18;53.20;99922.84;1735396;78;21198;-58
2021/04/03 07:05:52;;;;;;;8.83;4.33;;;;;;;7.23;53.05;99923.81;1776234;80;21172;-60
2021/04/03 07:08:20;;;;;;;9.80;4.65;;;;;;;7.25;52.84;99925.84;1763252;81;21712;-62
2021/04/03 07:10:48;;;;;;;7.12;4.45;;;;;;;7.28;52.88;99921.70;1806498;78;21196;-61
2021/04/03 07:13:17;;;;;;;9.60;5.15;;;;;;;7.32;52.77;99930.15;1804629;78;21195;-60
2021/04/03 07:15:45;;;;;;;9.38;5.37;;;;;;;7.34;52.90;99931.69;1811474;78;21526;-63
2021/04/03 07:18:13;;;;;;;10.23;5.22;;;;;;;7.38;52.88;99925.75;1797319;78;22223;-61
2021/04/03 07:20:42;;;;;;;12.73;5.55;;;;;;;7.49;52.79;99932.34;1756593;78;21555;-61
2021/04/03 07:23:11;;;;;;;10.40;4.62;;;;;;;7.62;52.75;99929.17;1803152;78;21633;-60
2021/04/03 07:25:44;;;;;;;8.83;4.58;;;;;;;7.76;52.33;99937.77;1801294;78;21168;-61
2021/04/03 07:28:14;;;;;;;9.05;4.65;;;;;;;7.87;52.06;99934.33;1806050;78;21164;-60
2021/04/03 07:30:43;;;;;;;10.25;5.20;;;;;;;7.97;51.66;99939.25;1798913;78;21303;-61
2021/04/03 07:33:16;;;;;;;9.78;5.08;;;;;;;8.03;51.67;99936.15;1809134;78;21163;-59
2021/04/03 07:35:57;;;;;;;9.38;5.42;;;;;;;8.11;51.71;99939.02;1801339;78;22749;-59
2021/04/03 07:38:30;;;;;;;8.75;5.22;;;;;;;8.22;51.60;99942.59;1806338;78;21105;-60
2021/04/03 07:41:06;;;;;;;12.18;5.65;;;;;;;8.29;51.00;99951.19;1760888;79;21231;-58
2021/04/03 07:43:44;;;;;;;8.60;5.12;;;;;;;8.35;50.77;99950.72;1758831;79;21229;-59
2021/04/03 07:46:23;;;;;;;10.05;5.35;;;;;;;8.36;50.61;99955.00;1796533;78;21198;-60
2021/04/03 07:48:59;;;;;;;8.55;4.25;;;;;;;8.42;50.47;99953.67;1784392;79;21161;-59
2021/04/03 07:51:35;;;;;;;9.63;5.03;;;;;;;8.45;50.48;99952.16;1804936;79;21148;-59
2021/04/03 07:54:05;;;;;;;13.83;5.25;;;;;;;8.53;50.57;99950.27;1792569;79;21439;-59
2021/04/03 07:56:53;;;;;;;8.25;4.65;;;;;;;8.62;50.14;99949.52;1759388;79;21219;-59
2021/04/03 07:59:47;;;;;;;8.25;4.67;;;;;;;8.70;49.88;99956.31;1771091;79;21194;-58
2021/04/03 08:02:21;;;;;;;10.35;4.33;;;;;;;8.83;49.39;99952.25;1794302;78;21234;-59
2021/04/03 08:04:49;;;;;;;10.23;5.20;;;;;;;8.98;49.18;99955.44;1787645;77;21662;-59
2021/04/03 08:07:19;;;;;;;8.68;4.95;;;;;;;9.08;48.43;99951.12;1777675;80;21205;-58
2021/04/03 08:09:49;;;;;;;10.18;5.33;;;;;;;9.18;48.24;99963.03;1794601;79;21373;-57
2021/04/03 08:12:18;;;;;;;9.38;5.12;;;;;;;9.23;47.98;99965.25;1779440;80;21205;-59
2021/04/03 08:14:50;;;;;;;10.88;4.15;;;;;;;9.24;47.61;99974.31;1767177;79;21179;-59
2021/04/03 08:17:19;;;;;;;9.55;5.42;;;;;;;9.31;47.72;99977.28;1723342;80;21233;-59
2021/04/03 08:19:48;;;;;;;12.73;4.95;;;;;;;9.42;46.92;99981.68;1794684;79;21190;-59
2021/04/03 08:22:16;;;;;;;11.22;4.70;;;;;;;9.47;46.63;99975.08;1754973;80;21392;-59
2021/04/03 08:24:58;;;;;;;8.63;4.60;;;;;;;9.53;46.75;99972.91;1755127;80;21651;-58
2021/04/03 08:27:33;;;;;;;9.50;4.25;;;;;;;9.63;45.82;99972.50;1770919;79;21228;-59
2021/04/03 08:31:40;;;;;;;7.15;3.77;;;;;;;9.91;42.07;99957.08;1755323;79;23049;-60
2021/04/03 08:34:08;;;;;;;9.48;4.75;;;;;;;9.90;41.46;99944.89;1728963;82;21080;-59
2021/04/03 08:36:36;;;;;;;10.00;5.62;;;;;;;9.92;42.33;99950.38;1729506;81;22131;-61
2021/04/03 08:39:06;;;;;;;9.25;5.00;;;;;;;9.93;43.76;99959.09;1725608;82;21137;-58
2021/04/03 08:41:35;;;;;;;8.95;5.28;;;;;;;9.93;43.18;99965.17;1700115;82;21623;-59
2021/04/03 08:44:03;;;;;;;9.03;3.92;;;;;;;9.91;43.19;99958.39;1704003;82;21287;-60
2021/04/03 08:46:31;;;;;;;6.50;3.40;;;;;;;9.85;42.37;99965.83;1690502;82;21623;-58
2021/04/03 08:48:59;;;;;;;6.83;3.25;;;;;;;9.85;41.53;99955.78;1732056;82;21359;-58
2021/04/03 08:51:27;;;;;;;6.10;2.37;;;;;;;9.90;39.80;99954.08;1724211;81;21211;-57
2021/04/03 08:54:02;;;;;;;6.83;2.80;;;;;;;9.92;37.34;99941.19;1704474;82;21271;-58
2021/04/03 08:56:36;;;;;;;7.95;4.05;;;;;;;9.95;38.46;99942.24;1726446;82;21196;-57
2021/04/03 08:59:09;;;;;;;;;;;;;;;10.01;40.18;99939.56;1725710;82;21216;-58
2021/04/03 09:01:40;;;;;;;7.28;3.08;;;;;;;10.07;40.41;99943.00;1731103;82;21207;-58
2021/04/03 09:04:08;;;;;;;8.63;3.98;;;;;;;10.02;40.45;99945.19;1694809;82;21553;-58
2021/04/03 09:06:54;;;;;;;6.53;3.70;;;;;;;10.10;40.61;99948.46;1721612;82;21218;-58
2021/04/03 09:09:24;;;;;;;7.87;2.87;;;;;;;10.19;38.43;99947.20;1730094;81;21664;-58
2021/04/03 09:12:08;;;;;;;7.28;2.87;;;;;;;10.29;38.53;99942.45;1725673;80;21192;-58
2021/04/03 09:14:41;;;;;;;5.00;1.98;;;;;;;10.36;37.93;99952.85;1731750;81;21473;-57
2021/04/03 09:17:23;;;;;;;6.00;2.65;;;;;;;10.43;37.81;99948.72;1727090;82;21212;-57
2021/04/03 09:19:54;;;;;;;6.70;2.08;;;;;;;10.50;37.14;99950.34;1732926;82;21172;-57
2021/04/03 09:22:23;;;;;;;4.30;1.42;;;;;;;10.58;36.38;99947.37;1726152;82;21192;-57
2021/04/03 09:24:57;;;;;;;7.30;2.15;;;;;;;10.70;35.65;99952.55;1728155;82;21718;-58
2021/04/03 09:27:26;;;;;;;6.72;2.50;;;;;;;10.78;36.31;99951.39;1724702;82;22276;-56
2021/04/03 09:30:08;;;;;;;5.97;2.15;;;;;;;10.81;36.26;99957.71;1703707;81;21571;-57
2021/04/03 09:32:46;;;;;;;4.97;1.95;;;;;;;10.82;35.47;99953.27;1708664;82;21287;-57
2021/04/03 09:35:30;;;;;;;5.30;2.20;;;;;;;10.87;35.00;99953.20;1702688;82;21394;-57
2021/04/03 09:37:58;;;;;;;4.45;1.82;;;;;;;11.00;34.89;99954.28;1727433;82;21732;-56
2021/04/03 09:40:45;;;;;;;5.67;1.95;;;;;;;11.15;33.87;99932.33;1864806;74;22829;-58
2021/04/03 09:43:14;;;;;;;4.92;1.62;;;;;;;11.13;34.01;99939.55;1841970;75;21197;-58
2021/04/03 09:45:44;;;;;;;4.70;1.92;;;;;;;11.08;34.76;99943.08;1843602;75;21375;-58
2021/04/03 09:48:11;;;;;;;4.35;1.22;;;;;;;11.12;34.11;99949.72;1840458;75;21444;-57
2021/04/03 09:50:40;;;;;;;3.12;1.05;;;;;;;11.17;34.32;99956.72;1844210;76;21171;-58
2021/04/03 09:53:11;;;;;;;2.35;0.80;;;;;;;11.25;31.81;99951.61;1812679;77;21744;-58
2021/04/03 09:55:39;;;;;;;5.37;1.60;;;;;;;11.28;31.59;99950.02;1839395;77;21138;-56
2021/04/03 09:58:06;;;;;;;4.28;1.27;;;;;;;11.28;31.17;99945.21;1780868;78;22091;-57
2021/04/03 10:00:34;;;;;;;5.42;1.72;;;;;;;11.27;31.63;99949.66;1751341;80;21165;-57
2021/04/03 10:03:04;;;;;;;4.05;1.72;;;;;;;11.24;32.66;99947.30;1774590;80;21519;-57
2021/04/03 10:05:32;;;;;;;4.40;1.57;;;;;;;11.23;33.25;99948.75;1809977;77;21203;-57
2021/04/03 10:08:01;;;;;;;5.62;1.50;;;;;;;11.22;34.19;99951.05;1812427;78;21194;-57
2021/04/03 10:10:30;;;;;;;7.62;1.85;;;;;;;11.27;32.73;99948.34;1774514;78;21205;-57
2021/04/03 10:12:57;;;;;;;5.28;1.37;;;;;;;11.30;32.29;99946.75;1804434;77;21372;-58
2021/04/03 10:15:27;;;;;;;3.42;1.50;;;;;;;11.32;32.76;99963.73;1774453;78;21238;-58
2021/04/03 10:17:55;;;;;;;5.03;1.35;;;;;;;11.31;33.00;99958.97;1805170;77;21112;-58
2021/04/03 10:20:23;;;;;;;3.52;1.02;;;;;;;11.32;32.79;99959.30;1777958;79;21442;-58
2021/04/03 10:22:51;;;;;;;4.45;1.30;;;;;;;11.37;33.00;99958.06;1756628;80;22808;-66
2021/04/03 10:25:19;;;;;;;8.00;1.50;;;;;;;11.46;32.82;99959.36;1775649;78;21171;-62
2021/04/03 10:27:46;;;;;;;4.70;1.50;;;;;;;11.58;32.54;99961.36;1778861;78;21178;-65
2021/04/03 10:30:16;;;;;;;5.78;2.17;;;;;;;11.70;32.72;99953.67;1769726;77;21207;-61
2021/04/03 10:32:44;;;;;;;4.37;1.52;;;;;;;11.80;32.37;99954.13;1787768;78;21194;-63
2021/04/03 10:35:12;;;;;;;3.60;1.37;;;;;;;11.88;33.24;99952.94;1778255;80;21179;-62
2021/04/03 10:37:41;;;;;;;4.95;1.35;;;;;;;12.04;32.24;99954.54;1762632;79;21210;-58
2021/04/03 10:40:11;;;;;;;3.83;1.40;;;;;;;12.13;32.20;99958.12;1745883;80;21223;-58
2021/04/03 10:42:41;;;;;;;2.90;1.05;;;;;;;12.15;31.98;99945.61;1757779;79;21202;-58
2021/04/03 10:45:10;;;;;;;4.42;1.60;;;;;;;12.19;31.69;99943.55;1745632;79;21662;-58
2021/04/03 10:47:37;;;;;;;4.03;0.90;;;;;;;12.22;31.03;99942.77;1785961;78;21238;-58
2021/04/03 10:50:07;;;;;;;4.28;1.17;;;;;;;12.22;31.31;99934.84;1788789;78;21230;-58
2021/04/03 10:52:35;;;;;;;2.22;0.70;;;;;;;12.23;30.34;99945.73;1761789;79;21195;-59
2021/04/03 10:55:06;;;;;;;4.20;1.25;;;;;;;12.22;30.54;99945.87;1741387;80;21206;-58
2021/04/03 10:57:34;;;;;;;2.92;0.88;;;;;;;12.21;30.43;99938.95;1780501;78;21187;-57
2021/04/03 11:00:03;;;;;;;3.62;1.05;;;;;;;12.25;29.24;99945.59;1784928;78;23010;-58
2021/04/03 11:02:32;;;;;;;3.45;1.10;;;;;;;12.24;28.88;99950.04;1751787;80;21587;-57
2021/04/03 11:05:00;;;;;;;3.90;1.07;;;;;;;12.22;28.91;99938.81;1733107;80;21319;-58
2021/04/03 11:07:28;;;;;;;2.50;0.70;;;;;;;12.25;28.92;99934.56;1739380;80;21631;-57
2021/04/03 11:09:56;;;;;;;2.75;0.90;;;;;;;12.34;28.97;99932.01;1738540;80;21208;-58
2021/04/03 11:12:23;;;;;;;3.75;0.82;;;;;;;12.43;28.64;99939.06;1783074;78;21210;-58
2021/04/03 11:14:52;;;;;;;4.22;1.05;;;;;;;12.52;28.10;99936.03;1754820;80;21195;-58
2021/04/03 11:17:20;;;;;;;2.72;1.00;;;;;;;12.55;27.29;99930.47;1750706;80;21217;-58
2021/04/03 11:19:48;;;;;;;3.12;0.88;;;;;;;12.51;27.29;99922.48;1749091;80;21176;-58
2021/04/03 11:22:16;;;;;;;7.40;1.00;;;;;;;12.46;27.66;99924.27;1767215;78;21661;-57
2021/04/03 11:24:45;;;;;;;3.70;1.07;;;;;;;12.42;27.76;99923.73;1782436;78;21233;-57
2021/04/03 11:27:13;;;;;;;4.92;1.20;;;;;;;12.35;27.71;99930.55;1747898;80;21195;-57
2021/04/03 11:29:42;;;;;;;4.47;1.20;;;;;;;12.21;27.57;99933.17;1750261;80;21156;-57
2021/04/03 11:32:10;;;;;;;3.40;1.00;;;;;;;12.14;27.76;99928.61;1753644;80;21136;-58
2021/04/03 11:34:37;;;;;;;3.50;1.15;;;;;;;12.06;27.58;99930.66;1752598;80;21147;-58
2021/04/03 11:37:05;;;;;;;7.45;1.25;;;;;;;11.99;27.37;99923.81;1750649;78;21888;-58
2021/04/03 11:39:32;;;;;;;3.42;1.10;;;;;;;11.98;27.79;99923.45;1759337;79;21222;-58
2021/04/03 11:42:00;;;;;;;3.65;1.02;;;;;;;12.02;27.93;99924.00;1789955;78;21222;-58
2021/04/03 11:44:28;;;;;;;3.80;1.07;;;;;;;12.07;27.78;99921.79;1804363;79;21406;-58
2021/04/03 12:00:07;;;;;;;4.55;1.35;;;;;;;12.43;27.61;99912.18;1872433;75;22362;-59
2021/04/03 12:02:39;;;;;;;3.30;1.20;;;;;;;12.42;27.86;99909.22;1846441;76;21163;-58
2021/04/03 12:05:08;;;;;;;4.08;1.20;;;;;;;12.43;28.29;99909.55;1845034;76;22720;-58
2021/04/03 12:07:37;;;;;;;4.60;1.25;;;;;;;12.45;28.94;99915.50;1878827;75;21194;-59
2021/04/03 12:10:07;;;;;;;5.15;2.00;;;;;;;12.49;28.86;99912.57;1771533;78;21186;-59